sensor_id;sensor_type;location;lat;lon;timestamp;P1;durP1;ratioP1;P2;durP2;ratioP2
7013;SDS011;3547;50.774;12.918;2023-10-09T00:00:13;1.73;;;1.20;;
7013;SDS011;3547;50.774;12.918;2023-10-09T00:03:11;1.17;;;1.00;;
7013;SDS011;3547;50.774;12.918;2023-10-09T00:05:46;1.10;;;1.00;;
7013;SDS011;3547;50.774;12.918;2023-10-09T00:08:30;3.97;;;1.10;;
7013;SDS011;3547;50.774;12.918;2023-10-09T00:11:02;1.10;;;1.00;;
7013;SDS011;3547;50.774;12.918;2023-10-09T00:13:44;1.57;;;0.80;;
7013;SDS011;3547;50.774;12.918;2023-10-09T00:16:18;1.00;;;0.70;;
7013;SDS011;3547;50.774;12.918;2023-10-09T00:18:50;0.70;;;0.70;;
7013;SDS011;3547;50.774;12.918;2023-10-09T00:21:16;1.20;;;1.00;;
7013;SDS011;3547;50.774;12.918;2023-10-09T00:23:46;2.53;;;1.00;;
7013;SDS011;3547;50.774;12.918;2023-10-09T00:26:24;0.97;;;0.80;;
7013;SDS011;3547;50.774;12.918;2023-10-09T00:29:08;0.70;;;0.70;;
7013;SDS011;3547;50.774;12.918;2023-10-09T00:31:41;1.90;;;0.87;;
7013;SDS011;3547;50.774;12.918;2023-10-09T00:34:16;0.50;;;0.50;;
7013;SDS011;3547;50.774;12.918;2023-10-09T00:36:48;1.10;;;1.00;;
7013;SDS011;3547;50.774;12.918;2023-10-09T00:39:18;1.30;;;1.20;;
7013;SDS011;3547;50.774;12.918;2023-10-09T00:42:04;1.33;;;0.97;;
7013;SDS011;3547;50.774;12.918;2023-10-09T00:44:32;1.40;;;1.10;;
7013;SDS011;3547;50.774;12.918;2023-10-09T00:47:08;1.07;;;0.97;;
7013;SDS011;3547;50.774;12.918;2023-10-09T00:49:56;1.00;;;0.80;;
7013;SDS011;3547;50.774;12.918;2023-10-09T00:52:26;0.77;;;0.77;;
7013;SDS011;3547;50.774;12.918;2023-10-09T00:55:18;1.77;;;1.07;;
7013;SDS011;3547;50.774;12.918;2023-10-09T00:58:06;0.63;;;0.63;;
7013;SDS011;3547;50.774;12.918;2023-10-09T01:00:39;2.17;;;1.10;;
7013;SDS011;3547;50.774;12.918;2023-10-09T01:03:17;0.97;;;0.97;;
7013;SDS011;3547;50.774;12.918;2023-10-09T01:05:48;1.70;;;1.30;;
7013;SDS011;3547;50.774;12.918;2023-10-09T01:08:29;2.60;;;1.53;;
7013;SDS011;3547;50.774;12.918;2023-10-09T01:11:12;1.37;;;1.10;;
7013;SDS011;3547;50.774;12.918;2023-10-09T01:13:47;1.80;;;1.60;;
7013;SDS011;3547;50.774;12.918;2023-10-09T01:20:21;2.47;;;1.23;;
7013;SDS011;3547;50.774;12.918;2023-10-09T01:22:55;1.03;;;0.90;;
7013;SDS011;3547;50.774;12.918;2023-10-09T01:25:24;1.57;;;1.20;;
7013;SDS011;3547;50.774;12.918;2023-10-09T01:27:58;1.03;;;0.93;;
7013;SDS011;3547;50.774;12.918;2023-10-09T01:30:25;1.30;;;1.20;;
7013;SDS011;3547;50.774;12.918;2023-10-09T01:32:51;1.50;;;1.23;;
7013;SDS011;3547;50.774;12.918;2023-10-09T01:35:17;1.30;;;1.20;;
7013;SDS011;3547;50.774;12.918;2023-10-09T01:37:46;2.37;;;1.10;;
7013;SDS011;3547;50.774;12.918;2023-10-09T01:40:16;1.60;;;1.50;;
7013;SDS011;3547;50.774;12.918;2023-10-09T01:43:02;4.73;;;1.43;;
7013;SDS011;3547;50.774;12.918;2023-10-09T01:48:57;2.53;;;1.60;;
7013;SDS011;3547;50.774;12.918;2023-10-09T01:51:24;4.33;;;1.37;;
7013;SDS011;3547;50.774;12.918;2023-10-09T01:53:52;1.37;;;1.17;;
7013;SDS011;3547;50.774;12.918;2023-10-09T01:56:22;1.60;;;1.23;;
7013;SDS011;3547;50.774;12.918;2023-10-09T01:58:51;1.50;;;1.40;;
7013;SDS011;3547;50.774;12.918;2023-10-09T02:01:22;1.97;;;1.53;;
7013;SDS011;3547;50.774;12.918;2023-10-09T02:03:49;1.97;;;1.70;;
7013;SDS011;3547;50.774;12.918;2023-10-09T02:06:17;1.77;;;1.43;;
7013;SDS011;3547;50.774;12.918;2023-10-09T02:08:53;1.97;;;1.70;;
7013;SDS011;3547;50.774;12.918;2023-10-09T02:11:20;2.43;;;2.13;;
7013;SDS011;3547;50.774;12.918;2023-10-09T02:14:12;2.80;;;2.10;;
7013;SDS011;3547;50.774;12.918;2023-10-09T02:16:48;3.67;;;2.00;;
7013;SDS011;3547;50.774;12.918;2023-10-09T02:19:34;2.00;;;1.47;;
7013;SDS011;3547;50.774;12.918;2023-10-09T02:22:01;1.60;;;1.50;;
7013;SDS011;3547;50.774;12.918;2023-10-09T02:24:40;2.47;;;1.93;;
7013;SDS011;3547;50.774;12.918;2023-10-09T02:27:16;2.28;;;1.60;;
7013;SDS011;3547;50.774;12.918;2023-10-09T02:29:48;1.63;;;1.40;;
7013;SDS011;3547;50.774;12.918;2023-10-09T02:32:15;2.20;;;1.90;;
7013;SDS011;3547;50.774;12.918;2023-10-09T02:34:43;3.03;;;2.73;;
7013;SDS011;3547;50.774;12.918;2023-10-09T02:37:12;5.10;;;3.60;;
7013;SDS011;3547;50.774;12.918;2023-10-09T02:39:39;2.23;;;2.03;;
7013;SDS011;3547;50.774;12.918;2023-10-09T02:42:13;2.07;;;1.70;;
7013;SDS011;3547;50.774;12.918;2023-10-09T02:44:40;2.60;;;1.63;;
7013;SDS011;3547;50.774;12.918;2023-10-09T02:47:12;2.07;;;1.80;;
7013;SDS011;3547;50.774;12.918;2023-10-09T02:49:55;2.43;;;1.60;;
7013;SDS011;3547;50.774;12.918;2023-10-09T02:52:26;1.90;;;1.47;;
7013;SDS011;3547;50.774;12.918;2023-10-09T02:54:58;2.60;;;2.20;;
7013;SDS011;3547;50.774;12.918;2023-10-09T02:57:26;5.50;;;2.60;;
7013;SDS011;3547;50.774;12.918;2023-10-09T03:00:10;2.07;;;1.80;;
7013;SDS011;3547;50.774;12.918;2023-10-09T03:02:44;4.07;;;2.70;;
7013;SDS011;3547;50.774;12.918;2023-10-09T03:05:15;3.17;;;2.33;;
7013;SDS011;3547;50.774;12.918;2023-10-09T03:07:42;3.77;;;2.00;;
7013;SDS011;3547;50.774;12.918;2023-10-09T03:10:13;1.83;;;1.73;;
7013;SDS011;3547;50.774;12.918;2023-10-09T03:12:40;1.77;;;1.53;;
7013;SDS011;3547;50.774;12.918;2023-10-09T03:15:10;3.57;;;2.20;;
7013;SDS011;3547;50.774;12.918;2023-10-09T03:17:39;3.27;;;2.23;;
7013;SDS011;3547;50.774;12.918;2023-10-09T03:20:08;4.70;;;2.63;;
7013;SDS011;3547;50.774;12.918;2023-10-09T03:22:38;7.07;;;3.33;;
7013;SDS011;3547;50.774;12.918;2023-10-09T03:25:05;6.53;;;3.40;;
7013;SDS011;3547;50.774;12.918;2023-10-09T03:27:38;5.00;;;2.77;;
7013;SDS011;3547;50.774;12.918;2023-10-09T03:30:13;9.67;;;2.93;;
7013;SDS011;3547;50.774;12.918;2023-10-09T03:32:51;3.90;;;2.77;;
7013;SDS011;3547;50.774;12.918;2023-10-09T03:35:22;4.90;;;3.20;;
7013;SDS011;3547;50.774;12.918;2023-10-09T03:37:51;3.60;;;3.13;;
7013;SDS011;3547;50.774;12.918;2023-10-09T03:40:25;4.47;;;3.27;;
7013;SDS011;3547;50.774;12.918;2023-10-09T03:42:57;5.27;;;3.33;;
7013;SDS011;3547;50.774;12.918;2023-10-09T03:45:23;6.97;;;3.50;;
7013;SDS011;3547;50.774;12.918;2023-10-09T03:48:04;4.57;;;3.47;;
7013;SDS011;3547;50.774;12.918;2023-10-09T03:50:50;5.95;;;3.45;;
7013;SDS011;3547;50.774;12.918;2023-10-09T03:53:34;7.35;;;4.10;;
7013;SDS011;3547;50.774;12.918;2023-10-09T03:56:08;5.37;;;3.23;;
7013;SDS011;3547;50.774;12.918;2023-10-09T03:58:54;4.67;;;3.13;;
7013;SDS011;3547;50.774;12.918;2023-10-09T04:01:21;5.65;;;3.08;;
7013;SDS011;3547;50.774;12.918;2023-10-09T04:04:06;8.23;;;2.97;;
7013;SDS011;3547;50.774;12.918;2023-10-09T04:06:36;6.55;;;3.58;;
7013;SDS011;3547;50.774;12.918;2023-10-09T04:09:10;5.47;;;3.70;;
7013;SDS011;3547;50.774;12.918;2023-10-09T04:11:45;3.83;;;3.17;;
7013;SDS011;3547;50.774;12.918;2023-10-09T04:14:20;7.85;;;3.42;;
7013;SDS011;3547;50.774;12.918;2023-10-09T04:17:12;4.80;;;2.90;;
7013;SDS011;3547;50.774;12.918;2023-10-09T04:19:47;8.45;;;3.80;;
7013;SDS011;3547;50.774;12.918;2023-10-09T04:22:14;5.95;;;3.28;;
7013;SDS011;3547;50.774;12.918;2023-10-09T04:25:00;4.57;;;3.08;;
7013;SDS011;3547;50.774;12.918;2023-10-09T04:28:01;4.60;;;3.40;;
7013;SDS011;3547;50.774;12.918;2023-10-09T04:30:47;7.80;;;3.22;;
7013;SDS011;3547;50.774;12.918;2023-10-09T04:33:23;4.22;;;2.95;;
7013;SDS011;3547;50.774;12.918;2023-10-09T04:36:19;4.68;;;3.08;;
7013;SDS011;3547;50.774;12.918;2023-10-09T04:38:46;6.40;;;3.15;;
7013;SDS011;3547;50.774;12.918;2023-10-09T04:41:21;7.00;;;3.78;;
7013;SDS011;3547;50.774;12.918;2023-10-09T04:43:57;5.40;;;3.20;;
7013;SDS011;3547;50.774;12.918;2023-10-09T04:46:41;8.75;;;3.30;;
7013;SDS011;3547;50.774;12.918;2023-10-09T04:49:31;4.03;;;3.45;;
7013;SDS011;3547;50.774;12.918;2023-10-09T04:52:13;3.88;;;2.83;;
7013;SDS011;3547;50.774;12.918;2023-10-09T04:54:55;4.15;;;3.33;;
7013;SDS011;3547;50.774;12.918;2023-10-09T05:11:27;6.75;;;3.10;;
7013;SDS011;3547;50.774;12.918;2023-10-09T05:14:12;10.60;;;3.85;;
7013;SDS011;3547;50.774;12.918;2023-10-09T05:16:47;5.32;;;3.17;;
7013;SDS011;3547;50.774;12.918;2023-10-09T05:19:26;6.28;;;3.45;;
7013;SDS011;3547;50.774;12.918;2023-10-09T05:22:14;5.85;;;3.33;;
7013;SDS011;3547;50.774;12.918;2023-10-09T05:25:17;5.60;;;3.63;;
7013;SDS011;3547;50.774;12.918;2023-10-09T05:28:03;7.30;;;3.13;;
7013;SDS011;3547;50.774;12.918;2023-10-09T05:30:51;6.28;;;3.45;;
7013;SDS011;3547;50.774;12.918;2023-10-09T05:33:53;4.47;;;2.70;;
7013;SDS011;3547;50.774;12.918;2023-10-09T05:36:26;6.70;;;3.78;;
7013;SDS011;3547;50.774;12.918;2023-10-09T05:38:53;5.00;;;3.40;;
7013;SDS011;3547;50.774;12.918;2023-10-09T05:42:02;6.22;;;3.83;;
7013;SDS011;3547;50.774;12.918;2023-10-09T05:49:55;6.15;;;3.22;;
7013;SDS011;3547;50.774;12.918;2023-10-09T05:52:33;5.60;;;3.65;;
7013;SDS011;3547;50.774;12.918;2023-10-09T05:55:06;7.50;;;3.75;;
7013;SDS011;3547;50.774;12.918;2023-10-09T05:57:57;6.15;;;3.72;;
7013;SDS011;3547;50.774;12.918;2023-10-09T06:00:42;7.80;;;3.83;;
7013;SDS011;3547;50.774;12.918;2023-10-09T06:03:30;3.85;;;2.95;;
7013;SDS011;3547;50.774;12.918;2023-10-09T06:06:16;5.60;;;2.97;;
7013;SDS011;3547;50.774;12.918;2023-10-09T06:09:07;6.93;;;3.95;;
7013;SDS011;3547;50.774;12.918;2023-10-09T06:25:13;6.00;;;4.20;;
7013;SDS011;3547;50.774;12.918;2023-10-09T06:34:21;9.25;;;3.58;;
7013;SDS011;3547;50.774;12.918;2023-10-09T06:37:50;6.70;;;3.70;;
7013;SDS011;3547;50.774;12.918;2023-10-09T06:43:13;7.97;;;3.83;;
7013;SDS011;3547;50.774;12.918;2023-10-09T07:13:06;6.40;;;4.30;;
7013;SDS011;3547;50.774;12.918;2023-10-09T07:15:41;4.60;;;3.35;;
7013;SDS011;3547;50.774;12.918;2023-10-09T07:18:27;6.25;;;4.20;;
7013;SDS011;3547;50.774;12.918;2023-10-09T07:21:14;4.97;;;3.63;;
7013;SDS011;3547;50.774;12.918;2023-10-09T07:23:43;5.80;;;3.53;;
7013;SDS011;3547;50.774;12.918;2023-10-09T07:26:14;7.85;;;3.92;;
7013;SDS011;3547;50.774;12.918;2023-10-09T07:28:44;5.18;;;3.70;;
7013;SDS011;3547;50.774;12.918;2023-10-09T07:31:17;6.00;;;4.00;;
7013;SDS011;3547;50.774;12.918;2023-10-09T07:34:05;8.80;;;4.07;;
7013;SDS011;3547;50.774;12.918;2023-10-09T07:36:51;6.45;;;4.00;;
7013;SDS011;3547;50.774;12.918;2023-10-09T07:39:24;7.00;;;4.03;;
7013;SDS011;3547;50.774;12.918;2023-10-09T07:42:08;6.07;;;3.58;;
7013;SDS011;3547;50.774;12.918;2023-10-09T07:44:59;7.95;;;4.05;;
7013;SDS011;3547;50.774;12.918;2023-10-09T07:47:52;5.00;;;4.03;;
7013;SDS011;3547;50.774;12.918;2023-10-09T07:53:52;7.88;;;3.83;;
7013;SDS011;3547;50.774;12.918;2023-10-09T07:59:21;6.60;;;3.75;;
7013;SDS011;3547;50.774;12.918;2023-10-09T08:01:49;7.43;;;4.13;;
7013;SDS011;3547;50.774;12.918;2023-10-09T08:04:28;7.88;;;4.40;;
7013;SDS011;3547;50.774;12.918;2023-10-09T08:18:08;4.00;;;3.42;;
7013;SDS011;3547;50.774;12.918;2023-10-09T08:42:18;7.50;;;4.57;;
7013;SDS011;3547;50.774;12.918;2023-10-09T08:44:49;5.75;;;4.13;;
7013;SDS011;3547;50.774;12.918;2023-10-09T08:47:42;7.53;;;3.53;;
7013;SDS011;3547;50.774;12.918;2023-10-09T08:53:32;9.27;;;4.20;;
7013;SDS011;3547;50.774;12.918;2023-10-09T09:01:15;10.23;;;4.18;;
7013;SDS011;3547;50.774;12.918;2023-10-09T09:16:46;7.15;;;3.72;;
7013;SDS011;3547;50.774;12.918;2023-10-09T09:19:17;6.07;;;4.00;;
7013;SDS011;3547;50.774;12.918;2023-10-09T09:21:50;4.55;;;3.80;;
7013;SDS011;3547;50.774;12.918;2023-10-09T09:24:24;4.95;;;3.80;;
7013;SDS011;3547;50.774;12.918;2023-10-09T09:26:51;6.38;;;4.05;;
7013;SDS011;3547;50.774;12.918;2023-10-09T09:29:37;7.25;;;4.53;;
7013;SDS011;3547;50.774;12.918;2023-10-09T09:32:06;5.75;;;3.42;;
7013;SDS011;3547;50.774;12.918;2023-10-09T09:34:52;5.88;;;3.85;;
7013;SDS011;3547;50.774;12.918;2023-10-09T09:37:30;6.03;;;3.45;;
7013;SDS011;3547;50.774;12.918;2023-10-09T09:40:12;4.85;;;3.65;;
7013;SDS011;3547;50.774;12.918;2023-10-09T09:42:53;4.85;;;3.53;;
7013;SDS011;3547;50.774;12.918;2023-10-09T09:45:37;6.10;;;3.60;;
7013;SDS011;3547;50.774;12.918;2023-10-09T09:48:11;5.97;;;4.20;;
7013;SDS011;3547;50.774;12.918;2023-10-09T09:50:41;7.00;;;3.88;;
7013;SDS011;3547;50.774;12.918;2023-10-09T09:53:11;6.90;;;4.05;;
7013;SDS011;3547;50.774;12.918;2023-10-09T09:55:53;6.00;;;3.88;;
7013;SDS011;3547;50.774;12.918;2023-10-09T09:58:26;5.55;;;4.20;;
7013;SDS011;3547;50.774;12.918;2023-10-09T10:01:08;6.35;;;3.47;;
7013;SDS011;3547;50.774;12.918;2023-10-09T10:03:50;4.88;;;3.75;;
7013;SDS011;3547;50.774;12.918;2023-10-09T10:06:24;7.13;;;4.03;;
7013;SDS011;3547;50.774;12.918;2023-10-09T10:08:54;4.47;;;3.28;;
7013;SDS011;3547;50.774;12.918;2023-10-09T10:14:10;6.20;;;3.83;;
7013;SDS011;3547;50.774;12.918;2023-10-09T10:17:04;4.90;;;3.60;;
7013;SDS011;3547;50.774;12.918;2023-10-09T10:19:58;4.38;;;2.92;;
7013;SDS011;3547;50.774;12.918;2023-10-09T10:26:17;4.18;;;3.13;;
7013;SDS011;3547;50.774;12.918;2023-10-09T10:29:29;4.55;;;3.53;;
7013;SDS011;3547;50.774;12.918;2023-10-09T10:31:57;5.18;;;3.80;;
7013;SDS011;3547;50.774;12.918;2023-10-09T10:37:13;4.28;;;3.10;;
7013;SDS011;3547;50.774;12.918;2023-10-09T10:39:51;4.60;;;3.17;;
7013;SDS011;3547;50.774;12.918;2023-10-09T10:42:25;4.78;;;3.60;;
7013;SDS011;3547;50.774;12.918;2023-10-09T10:45:03;4.90;;;3.67;;
7013;SDS011;3547;50.774;12.918;2023-10-09T10:47:55;8.50;;;3.88;;
7013;SDS011;3547;50.774;12.918;2023-10-09T10:50:24;7.30;;;3.63;;
7013;SDS011;3547;50.774;12.918;2023-10-09T10:56:00;4.22;;;3.60;;
7013;SDS011;3547;50.774;12.918;2023-10-09T10:58:42;4.75;;;3.13;;
7013;SDS011;3547;50.774;12.918;2023-10-09T11:01:30;5.85;;;3.70;;
7013;SDS011;3547;50.774;12.918;2023-10-09T11:04:21;4.53;;;3.25;;
7013;SDS011;3547;50.774;12.918;2023-10-09T11:07:12;4.38;;;2.78;;
7013;SDS011;3547;50.774;12.918;2023-10-09T11:09:48;9.95;;;4.40;;
7013;SDS011;3547;50.774;12.918;2023-10-09T11:15:05;7.07;;;3.90;;
7013;SDS011;3547;50.774;12.918;2023-10-09T11:18:13;5.85;;;3.53;;
7013;SDS011;3547;50.774;12.918;2023-10-09T11:20:43;5.15;;;3.10;;
7013;SDS011;3547;50.774;12.918;2023-10-09T11:23:29;4.25;;;3.40;;
7013;SDS011;3547;50.774;12.918;2023-10-09T11:26:07;10.85;;;3.38;;
7013;SDS011;3547;50.774;12.918;2023-10-09T11:29:04;4.82;;;3.33;;
7013;SDS011;3547;50.774;12.918;2023-10-09T11:32:01;6.00;;;3.60;;
7013;SDS011;3547;50.774;12.918;2023-10-09T11:34:31;6.07;;;3.67;;
7013;SDS011;3547;50.774;12.918;2023-10-09T11:39:41;4.47;;;3.20;;
7013;SDS011;3547;50.774;12.918;2023-10-09T11:42:19;4.00;;;3.17;;
7013;SDS011;3547;50.774;12.918;2023-10-09T11:45:19;6.90;;;3.20;;
7013;SDS011;3547;50.774;12.918;2023-10-09T11:47:51;6.68;;;3.75;;
7013;SDS011;3547;50.774;12.918;2023-10-09T11:50:40;5.93;;;3.50;;
7013;SDS011;3547;50.774;12.918;2023-10-09T11:53:17;6.45;;;3.95;;
7013;SDS011;3547;50.774;12.918;2023-10-09T11:55:49;6.47;;;3.17;;
7013;SDS011;3547;50.774;12.918;2023-10-09T11:58:21;6.80;;;3.45;;
7013;SDS011;3547;50.774;12.918;2023-10-09T12:01:09;8.63;;;3.35;;
7013;SDS011;3547;50.774;12.918;2023-10-09T12:03:43;7.95;;;3.88;;
7013;SDS011;3547;50.774;12.918;2023-10-09T12:06:21;3.90;;;3.03;;
7013;SDS011;3547;50.774;12.918;2023-10-09T12:12:10;5.32;;;3.08;;
7013;SDS011;3547;50.774;12.918;2023-10-09T12:14:38;5.40;;;3.60;;
7013;SDS011;3547;50.774;12.918;2023-10-09T12:17:08;5.10;;;3.30;;
7013;SDS011;3547;50.774;12.918;2023-10-09T12:19:43;4.43;;;3.05;;
7013;SDS011;3547;50.774;12.918;2023-10-09T12:22:10;4.28;;;3.10;;
7013;SDS011;3547;50.774;12.918;2023-10-09T12:24:41;8.40;;;3.40;;
7013;SDS011;3547;50.774;12.918;2023-10-09T12:27:11;6.68;;;3.85;;
7013;SDS011;3547;50.774;12.918;2023-10-09T12:29:37;8.93;;;3.80;;
7013;SDS011;3547;50.774;12.918;2023-10-09T12:32:10;3.60;;;2.60;;
7013;SDS011;3547;50.774;12.918;2023-10-09T12:34:36;8.07;;;4.03;;
7013;SDS011;3547;50.774;12.918;2023-10-09T12:37:04;5.47;;;3.38;;
7013;SDS011;3547;50.774;12.918;2023-10-09T12:39:31;5.57;;;3.17;;
7013;SDS011;3547;50.774;12.918;2023-10-09T12:42:05;5.13;;;3.33;;
7013;SDS011;3547;50.774;12.918;2023-10-09T12:44:32;9.50;;;3.45;;
7013;SDS011;3547;50.774;12.918;2023-10-09T12:46:59;5.35;;;3.15;;
7013;SDS011;3547;50.774;12.918;2023-10-09T12:49:30;5.63;;;3.25;;
7013;SDS011;3547;50.774;12.918;2023-10-09T12:51:56;3.45;;;2.67;;
7013;SDS011;3547;50.774;12.918;2023-10-09T12:54:24;5.75;;;3.50;;
7013;SDS011;3547;50.774;12.918;2023-10-09T12:56:54;5.03;;;2.90;;
7013;SDS011;3547;50.774;12.918;2023-10-09T12:59:21;7.40;;;3.92;;
7013;SDS011;3547;50.774;12.918;2023-10-09T13:01:48;4.50;;;3.28;;
7013;SDS011;3547;50.774;12.918;2023-10-09T13:04:29;7.78;;;3.17;;
7013;SDS011;3547;50.774;12.918;2023-10-09T13:06:57;5.53;;;3.55;;
7013;SDS011;3547;50.774;12.918;2023-10-09T13:09:29;4.57;;;3.47;;
7013;SDS011;3547;50.774;12.918;2023-10-09T13:12:01;5.97;;;4.20;;
7013;SDS011;3547;50.774;12.918;2023-10-09T13:14:28;6.40;;;3.28;;
7013;SDS011;3547;50.774;12.918;2023-10-09T13:16:54;4.28;;;3.28;;
7013;SDS011;3547;50.774;12.918;2023-10-09T13:19:21;4.78;;;3.28;;
7013;SDS011;3547;50.774;12.918;2023-10-09T13:21:49;4.00;;;3.38;;
7013;SDS011;3547;50.774;12.918;2023-10-09T13:24:16;4.22;;;3.08;;
7013;SDS011;3547;50.774;12.918;2023-10-09T13:26:42;7.72;;;3.42;;
7013;SDS011;3547;50.774;12.918;2023-10-09T13:29:16;4.53;;;3.40;;
7013;SDS011;3547;50.774;12.918;2023-10-09T13:31:48;4.53;;;3.13;;
7013;SDS011;3547;50.774;12.918;2023-10-09T13:34:16;8.63;;;3.55;;
7013;SDS011;3547;50.774;12.918;2023-10-09T13:36:42;6.38;;;3.75;;
7013;SDS011;3547;50.774;12.918;2023-10-09T13:39:24;7.25;;;3.33;;
7013;SDS011;3547;50.774;12.918;2023-10-09T13:41:51;6.25;;;3.33;;
7013;SDS011;3547;50.774;12.918;2023-10-09T13:44:32;4.38;;;3.35;;
7013;SDS011;3547;50.774;12.918;2023-10-09T13:47:00;4.85;;;3.40;;
7013;SDS011;3547;50.774;12.918;2023-10-09T13:49:28;8.40;;;3.13;;
7013;SDS011;3547;50.774;12.918;2023-10-09T13:51:57;5.95;;;3.40;;
7013;SDS011;3547;50.774;12.918;2023-10-09T13:54:25;5.63;;;4.00;;
7013;SDS011;3547;50.774;12.918;2023-10-09T13:57:01;6.88;;;3.30;;
7013;SDS011;3547;50.774;12.918;2023-10-09T13:59:32;5.97;;;3.38;;
7013;SDS011;3547;50.774;12.918;2023-10-09T14:02:01;6.35;;;3.75;;
7013;SDS011;3547;50.774;12.918;2023-10-09T14:04:42;5.10;;;3.47;;
7013;SDS011;3547;50.774;12.918;2023-10-09T14:07:09;5.80;;;3.72;;
7013;SDS011;3547;50.774;12.918;2023-10-09T14:09:35;7.30;;;4.22;;
7013;SDS011;3547;50.774;12.918;2023-10-09T14:12:10;5.28;;;3.15;;
7013;SDS011;3547;50.774;12.918;2023-10-09T14:14:43;7.88;;;3.40;;
7013;SDS011;3547;50.774;12.918;2023-10-09T14:17:16;6.05;;;3.72;;
7013;SDS011;3547;50.774;12.918;2023-10-09T14:19:51;7.80;;;3.92;;
7013;SDS011;3547;50.774;12.918;2023-10-09T14:22:22;4.93;;;3.70;;
7013;SDS011;3547;50.774;12.918;2023-10-09T14:24:53;5.90;;;3.88;;
7013;SDS011;3547;50.774;12.918;2023-10-09T14:27:23;5.63;;;4.00;;
7013;SDS011;3547;50.774;12.918;2023-10-09T14:30:00;5.68;;;3.90;;
7013;SDS011;3547;50.774;12.918;2023-10-09T14:32:27;7.63;;;3.42;;
7013;SDS011;3547;50.774;12.918;2023-10-09T14:35:03;10.82;;;3.17;;
7013;SDS011;3547;50.774;12.918;2023-10-09T14:37:38;8.10;;;3.72;;
7013;SDS011;3547;50.774;12.918;2023-10-09T14:40:05;4.70;;;3.67;;
7013;SDS011;3547;50.774;12.918;2023-10-09T14:42:39;6.25;;;4.32;;
7013;SDS011;3547;50.774;12.918;2023-10-09T14:45:09;5.38;;;3.78;;
7013;SDS011;3547;50.774;12.918;2023-10-09T14:47:41;5.22;;;3.92;;
7013;SDS011;3547;50.774;12.918;2023-10-09T14:50:07;6.57;;;3.97;;
7013;SDS011;3547;50.774;12.918;2023-10-09T14:52:39;7.32;;;4.75;;
7013;SDS011;3547;50.774;12.918;2023-10-09T14:55:06;5.68;;;3.65;;
7013;SDS011;3547;50.774;12.918;2023-10-09T14:57:33;11.07;;;4.15;;
7013;SDS011;3547;50.774;12.918;2023-10-09T14:59:59;5.32;;;4.05;;
7013;SDS011;3547;50.774;12.918;2023-10-09T15:02:27;5.97;;;3.45;;
7013;SDS011;3547;50.774;12.918;2023-10-09T15:04:54;4.97;;;3.90;;
7013;SDS011;3547;50.774;12.918;2023-10-09T15:07:20;6.53;;;5.10;;
7013;SDS011;3547;50.774;12.918;2023-10-09T15:09:46;4.85;;;3.97;;
7013;SDS011;3547;50.774;12.918;2023-10-09T15:12:12;7.53;;;4.90;;
7013;SDS011;3547;50.774;12.918;2023-10-09T15:14:38;7.15;;;3.72;;
7013;SDS011;3547;50.774;12.918;2023-10-09T15:17:05;6.25;;;3.55;;
7013;SDS011;3547;50.774;12.918;2023-10-09T15:19:32;5.68;;;4.07;;
7013;SDS011;3547;50.774;12.918;2023-10-09T15:21:59;4.88;;;3.88;;
7013;SDS011;3547;50.774;12.918;2023-10-09T15:24:25;6.70;;;4.68;;
7013;SDS011;3547;50.774;12.918;2023-10-09T15:26:53;7.18;;;4.53;;
7013;SDS011;3547;50.774;12.918;2023-10-09T15:29:26;4.90;;;3.40;;
7013;SDS011;3547;50.774;12.918;2023-10-09T15:31:57;6.03;;;3.42;;
7013;SDS011;3547;50.774;12.918;2023-10-09T15:34:30;6.45;;;4.38;;
7013;SDS011;3547;50.774;12.918;2023-10-09T15:36:57;5.07;;;3.70;;
7013;SDS011;3547;50.774;12.918;2023-10-09T15:39:23;10.60;;;4.45;;
7013;SDS011;3547;50.774;12.918;2023-10-09T15:41:50;6.93;;;3.97;;
7013;SDS011;3547;50.774;12.918;2023-10-09T15:44:19;6.47;;;4.00;;
7013;SDS011;3547;50.774;12.918;2023-10-09T15:46:50;5.22;;;3.47;;
7013;SDS011;3547;50.774;12.918;2023-10-09T15:49:27;5.18;;;3.72;;
7013;SDS011;3547;50.774;12.918;2023-10-09T15:51:55;7.43;;;4.28;;
7013;SDS011;3547;50.774;12.918;2023-10-09T15:54:23;4.90;;;3.67;;
7013;SDS011;3547;50.774;12.918;2023-10-09T15:56:51;5.95;;;3.67;;
7013;SDS011;3547;50.774;12.918;2023-10-09T15:59:17;5.40;;;3.72;;
7013;SDS011;3547;50.774;12.918;2023-10-09T16:01:43;6.25;;;3.97;;
7013;SDS011;3547;50.774;12.918;2023-10-09T16:04:09;9.27;;;4.40;;
7013;SDS011;3547;50.774;12.918;2023-10-09T16:06:36;5.30;;;3.83;;
7013;SDS011;3547;50.774;12.918;2023-10-09T16:09:07;4.78;;;3.85;;
7013;SDS011;3547;50.774;12.918;2023-10-09T16:11:37;7.53;;;3.72;;
7013;SDS011;3547;50.774;12.918;2023-10-09T16:14:05;3.80;;;3.40;;
7013;SDS011;3547;50.774;12.918;2023-10-09T16:16:35;6.93;;;4.15;;
7013;SDS011;3547;50.774;12.918;2023-10-09T16:22:04;5.05;;;3.80;;
7013;SDS011;3547;50.774;12.918;2023-10-09T16:24:33;7.22;;;3.78;;
7013;SDS011;3547;50.774;12.918;2023-10-09T16:27:01;6.95;;;3.95;;
7013;SDS011;3547;50.774;12.918;2023-10-09T16:29:29;7.57;;;3.85;;
7013;SDS011;3547;50.774;12.918;2023-10-09T16:31:55;6.15;;;3.70;;
7013;SDS011;3547;50.774;12.918;2023-10-09T16:34:21;4.57;;;3.38;;
7013;SDS011;3547;50.774;12.918;2023-10-09T16:36:51;6.28;;;3.83;;
7013;SDS011;3547;50.774;12.918;2023-10-09T16:39:17;4.18;;;3.28;;
7013;SDS011;3547;50.774;12.918;2023-10-09T16:41:47;4.88;;;3.97;;
7013;SDS011;3547;50.774;12.918;2023-10-09T16:44:15;6.72;;;4.40;;
7013;SDS011;3547;50.774;12.918;2023-10-09T16:46:45;8.05;;;4.72;;
7013;SDS011;3547;50.774;12.918;2023-10-09T16:49:12;5.93;;;3.83;;
7013;SDS011;3547;50.774;12.918;2023-10-09T16:51:44;6.78;;;3.90;;
7013;SDS011;3547;50.774;12.918;2023-10-09T16:54:10;5.13;;;3.67;;
7013;SDS011;3547;50.774;12.918;2023-10-09T16:56:42;5.97;;;4.30;;
7013;SDS011;3547;50.774;12.918;2023-10-09T16:59:10;7.05;;;4.38;;
7013;SDS011;3547;50.774;12.918;2023-10-09T17:01:43;4.72;;;3.72;;
7013;SDS011;3547;50.774;12.918;2023-10-09T17:04:10;4.85;;;3.60;;
7013;SDS011;3547;50.774;12.918;2023-10-09T17:06:42;4.38;;;3.70;;
7013;SDS011;3547;50.774;12.918;2023-10-09T17:09:13;5.07;;;3.45;;
7013;SDS011;3547;50.774;12.918;2023-10-09T17:11:39;7.60;;;3.65;;
7013;SDS011;3547;50.774;12.918;2023-10-09T17:14:06;6.43;;;3.60;;
7013;SDS011;3547;50.774;12.918;2023-10-09T17:16:38;5.82;;;4.15;;
7013;SDS011;3547;50.774;12.918;2023-10-09T17:19:07;5.47;;;3.35;;
7013;SDS011;3547;50.774;12.918;2023-10-09T17:21:34;4.50;;;3.83;;
7013;SDS011;3547;50.774;12.918;2023-10-09T17:24:03;6.50;;;3.58;;
7013;SDS011;3547;50.774;12.918;2023-10-09T17:26:30;8.55;;;4.10;;
7013;SDS011;3547;50.774;12.918;2023-10-09T17:28:56;7.75;;;4.07;;
7013;SDS011;3547;50.774;12.918;2023-10-09T17:31:23;6.35;;;3.47;;
7013;SDS011;3547;50.774;12.918;2023-10-09T17:33:51;6.72;;;4.10;;
7013;SDS011;3547;50.774;12.918;2023-10-09T17:36:21;6.68;;;3.72;;
7013;SDS011;3547;50.774;12.918;2023-10-09T17:38:48;5.88;;;4.15;;
7013;SDS011;3547;50.774;12.918;2023-10-09T17:41:20;4.88;;;4.00;;
7013;SDS011;3547;50.774;12.918;2023-10-09T17:43:49;8.02;;;4.35;;
7013;SDS011;3547;50.774;12.918;2023-10-09T17:46:19;4.85;;;3.63;;
7013;SDS011;3547;50.774;12.918;2023-10-09T17:48:46;9.77;;;4.13;;
7013;SDS011;3547;50.774;12.918;2023-10-09T17:51:12;9.15;;;3.83;;
7013;SDS011;3547;50.774;12.918;2023-10-09T17:53:40;6.95;;;4.68;;
7013;SDS011;3547;50.774;12.918;2023-10-09T17:56:13;4.30;;;3.90;;
7013;SDS011;3547;50.774;12.918;2023-10-09T17:58:47;5.28;;;3.95;;
7013;SDS011;3547;50.774;12.918;2023-10-09T18:01:16;7.32;;;4.78;;
7013;SDS011;3547;50.774;12.918;2023-10-09T18:03:43;7.47;;;4.47;;
7013;SDS011;3547;50.774;12.918;2023-10-09T18:06:10;6.40;;;4.30;;
7013;SDS011;3547;50.774;12.918;2023-10-09T18:08:42;8.45;;;4.20;;
7013;SDS011;3547;50.774;12.918;2023-10-09T18:11:08;8.75;;;4.10;;
7013;SDS011;3547;50.774;12.918;2023-10-09T18:13:38;7.00;;;5.10;;
7013;SDS011;3547;50.774;12.918;2023-10-09T18:16:05;5.60;;;3.83;;
7013;SDS011;3547;50.774;12.918;2023-10-09T18:18:38;12.07;;;4.40;;
7013;SDS011;3547;50.774;12.918;2023-10-09T18:21:10;6.68;;;4.45;;
7013;SDS011;3547;50.774;12.918;2023-10-09T18:23:38;4.63;;;3.35;;